createdAt,value
2022-10-17T00:00:00.014Z,14.14
2022-10-17T00:02:27.457Z,14.13
2022-10-17T00:04:54.810Z,14.15
2022-10-17T00:07:22.163Z,14.12
2022-10-17T00:09:49.384Z,14.13
2022-10-17T00:12:16.614Z,14.11
2022-10-17T00:14:43.949Z,14.09
2022-10-17T00:17:11.267Z,14.12
2022-10-17T00:19:38.475Z,14.16
2022-10-17T00:22:05.660Z,14.12
2022-10-17T00:24:32.914Z,14.04
2022-10-17T00:27:03.736Z,13.96
2022-10-17T00:29:30.945Z,13.99
2022-10-17T00:31:58.177Z,13.82
2022-10-17T00:34:26.116Z,13.83
2022-10-17T00:36:53.247Z,13.82
2022-10-17T00:39:20.960Z,13.81
2022-10-17T00:41:48.096Z,13.76
2022-10-17T00:44:30.350Z,13.70
2022-10-17T00:46:59.499Z,13.64
2022-10-17T00:49:32.441Z,13.58
2022-10-17T00:52:04.717Z,13.67
2022-10-17T00:54:35.892Z,13.76
2022-10-17T00:57:03.940Z,13.75
2022-10-17T00:59:34.260Z,13.61
2022-10-17T01:02:08.700Z,13.59
2022-10-17T01:04:38.451Z,13.60
2022-10-17T01:07:06.823Z,13.60
2022-10-17T01:09:34.964Z,13.61
2022-10-17T01:12:14.203Z,13.64
2022-10-17T01:14:56.306Z,13.63
2022-10-17T01:17:42.903Z,13.66
2022-10-17T01:20:48.525Z,13.61
2022-10-17T01:23:19.241Z,13.62
2022-10-17T01:26:17.493Z,13.64
2022-10-17T01:29:11.462Z,13.52
2022-10-17T01:32:02.977Z,13.52
2022-10-17T01:34:43.923Z,13.40
2022-10-17T01:37:34.003Z,13.35
2022-10-17T01:40:12.093Z,13.33
2022-10-17T01:42:44.578Z,13.38
2022-10-17T01:45:23.167Z,13.31
2022-10-17T01:47:52.861Z,13.36
2022-10-17T01:50:26.230Z,13.38
2022-10-17T01:53:07.953Z,13.38
2022-10-17T01:55:39.644Z,13.33
2022-10-17T01:58:27.383Z,13.21
2022-10-17T02:00:57.467Z,13.24
2022-10-17T02:03:27.747Z,13.15
2022-10-17T02:05:55.050Z,13.17
2022-10-17T02:08:41.120Z,13.11
2022-10-17T02:11:29.742Z,13.11
2022-10-17T02:14:02.899Z,13.07
2022-10-17T02:16:39.492Z,13.12
2022-10-17T02:19:36.913Z,13.05
2022-10-17T02:22:16.752Z,13.05
2022-10-17T02:24:45.694Z,12.98
2022-10-17T02:27:29.177Z,12.94
2022-10-17T02:30:41.459Z,12.95
2022-10-17T02:33:29.317Z,12.97
2022-10-17T02:36:03.084Z,12.85
2022-10-17T02:38:33.176Z,12.90
2022-10-17T02:41:02.182Z,12.86
2022-10-17T02:43:30.264Z,12.83
2022-10-17T02:45:58.823Z,12.80
2022-10-17T02:48:38.576Z,12.83
2022-10-17T02:51:42.188Z,12.92
2022-10-17T02:54:21.638Z,12.89
2022-10-17T02:57:06.890Z,12.81
2022-10-17T02:59:37.077Z,12.83
2022-10-17T03:02:06.669Z,12.81
2022-10-17T03:04:34.693Z,12.81
2022-10-17T03:07:01.920Z,12.78
2022-10-17T03:09:29.830Z,12.83
2022-10-17T03:11:57.771Z,12.79
2022-10-17T03:14:25.126Z,12.81
2022-10-17T03:16:52.396Z,12.80
2022-10-17T03:19:20.172Z,12.79
2022-10-17T03:21:47.915Z,12.75
2022-10-17T03:24:15.365Z,12.74
2022-10-17T03:26:42.621Z,12.74
2022-10-17T03:29:09.920Z,12.84
2022-10-17T03:31:37.168Z,12.80
2022-10-17T03:34:06.548Z,12.81
2022-10-17T03:36:34.055Z,12.77
2022-10-17T03:39:01.873Z,12.84
2022-10-17T03:41:29.857Z,12.90
2022-10-17T03:43:57.198Z,12.85
2022-10-17T03:46:25.257Z,12.87
2022-10-17T03:48:54.154Z,12.84
2022-10-17T03:51:21.910Z,12.88
2022-10-17T03:53:54.280Z,12.86
2022-10-17T03:56:24.773Z,12.81
2022-10-17T03:59:02.308Z,12.84
2022-10-17T04:01:32.143Z,12.78
2022-10-17T04:03:59.847Z,12.76
2022-10-17T04:06:31.399Z,12.74
2022-10-17T04:09:00.176Z,12.72
2022-10-17T04:11:53.387Z,12.73
2022-10-17T04:14:21.818Z,12.68
2022-10-17T04:16:49.299Z,12.73
2022-10-17T04:19:20.658Z,12.67
2022-10-17T04:21:48.609Z,12.63
2022-10-17T04:24:15.946Z,12.60
2022-10-17T04:26:46.086Z,12.59
2022-10-17T04:29:15.322Z,12.61
2022-10-17T04:31:44.734Z,12.61
2022-10-17T04:34:19.913Z,12.55
2022-10-17T04:36:47.438Z,12.55
2022-10-17T04:39:15.511Z,12.58
2022-10-17T04:41:44.370Z,12.57
2022-10-17T04:44:12.626Z,12.49
2022-10-17T04:46:44.418Z,12.48
2022-10-17T04:49:11.665Z,12.52
2022-10-17T04:51:42.617Z,12.54
2022-10-17T04:54:17.236Z,12.53
2022-10-17T04:56:48.643Z,12.55
2022-10-17T04:59:16.087Z,12.50
2022-10-17T05:01:45.490Z,12.57
2022-10-17T05:04:13.702Z,12.52
2022-10-17T05:06:40.962Z,12.48
2022-10-17T05:09:28.590Z,12.48
2022-10-17T05:12:05.462Z,12.46
2022-10-17T05:14:35.299Z,12.51
2022-10-17T05:17:03.359Z,12.45
2022-10-17T05:19:30.616Z,12.48
2022-10-17T05:21:57.911Z,12.48
2022-10-17T05:24:25.156Z,12.47
2022-10-17T05:26:52.514Z,12.51
2022-10-17T05:29:19.981Z,12.53
2022-10-17T05:31:53.388Z,12.48
2022-10-17T05:34:21.275Z,12.41
2022-10-17T05:36:48.549Z,12.41
2022-10-17T05:39:19.860Z,12.42
2022-10-17T05:41:49.058Z,12.37
2022-10-17T05:44:16.541Z,12.38
2022-10-17T05:46:49.725Z,12.43
2022-10-17T05:49:31.992Z,12.41
2022-10-17T05:52:05.565Z,12.33
2022-10-17T05:54:41.613Z,12.32
2022-10-17T05:57:09.071Z,12.34
2022-10-17T05:59:36.937Z,12.32
2022-10-17T06:02:11.460Z,12.42
2022-10-17T06:04:41.010Z,12.38
2022-10-17T06:07:08.332Z,12.45
2022-10-17T06:09:35.932Z,12.40
2022-10-17T06:12:03.532Z,12.47
2022-10-17T06:14:30.799Z,12.46
2022-10-17T06:17:01.994Z,12.49
2022-10-17T06:19:29.274Z,12.53
2022-10-17T06:22:03.443Z,12.59
2022-10-17T06:24:31.899Z,12.58
2022-10-17T06:27:06.786Z,12.65
2022-10-17T06:29:37.182Z,12.78
2022-10-17T06:32:04.615Z,12.79
2022-10-17T06:34:33.074Z,12.89
2022-10-17T06:37:00.753Z,12.92
2022-10-17T06:39:33.920Z,12.92
2022-10-17T06:42:08.711Z,13.01
2022-10-17T06:44:58.786Z,13.13
2022-10-17T06:47:40.144Z,13.15
2022-10-17T06:50:21.733Z,13.15
2022-10-17T06:52:59.765Z,13.27
2022-10-17T06:55:58.265Z,13.34
2022-10-17T06:58:41.450Z,13.35
2022-10-17T07:01:21.377Z,13.43
2022-10-17T07:03:50.200Z,13.47
2022-10-17T07:06:18.081Z,13.56
2022-10-17T07:08:46.610Z,13.69
2022-10-17T07:11:20.848Z,13.74
2022-10-17T07:13:50.576Z,13.86
2022-10-17T07:16:18.033Z,13.89
2022-10-17T07:18:51.316Z,13.90
2022-10-17T07:21:19.472Z,13.97
2022-10-17T07:23:46.749Z,14.07
2022-10-17T07:26:16.702Z,14.21
2022-10-17T07:28:45.850Z,14.38
2022-10-17T07:31:39.355Z,14.57
2022-10-17T07:34:06.856Z,14.63
2022-10-17T07:36:34.387Z,14.71
2022-10-17T07:39:04.944Z,14.84
2022-10-17T07:41:33.329Z,14.92
2022-10-17T07:44:00.751Z,14.96
2022-10-17T07:46:34.046Z,15.01
2022-10-17T07:49:01.345Z,15.04
2022-10-17T07:51:29.759Z,15.08
2022-10-17T07:53:57.018Z,15.19
2022-10-17T07:56:24.857Z,15.35
2022-10-17T07:58:52.865Z,15.42
2022-10-17T08:01:20.094Z,15.54
2022-10-17T08:03:48.827Z,15.61
2022-10-17T08:06:16.233Z,15.70
2022-10-17T08:08:44.267Z,15.84
2022-10-17T08:11:14.635Z,15.79
2022-10-17T08:13:42.304Z,15.81
2022-10-17T08:16:13.001Z,15.82
2022-10-17T08:18:43.431Z,15.83
2022-10-17T08:21:13.078Z,15.86
2022-10-17T08:23:40.461Z,15.88
2022-10-17T08:26:10.829Z,16.07
2022-10-17T08:28:40.122Z,16.16
2022-10-17T08:31:10.653Z,16.32
2022-10-17T08:33:38.280Z,16.41
2022-10-17T08:36:07.318Z,16.53
2022-10-17T08:38:36.935Z,16.63
2022-10-17T08:41:11.236Z,16.81
2022-10-17T08:44:03.334Z,16.94
2022-10-17T08:46:37.767Z,17.06
2022-10-17T08:49:13.207Z,17.11
2022-10-17T08:51:49.875Z,17.19
2022-10-17T08:54:27.152Z,17.51
2022-10-17T08:56:55.636Z,17.77
2022-10-17T08:59:31.475Z,17.89
2022-10-17T09:02:42.726Z,18.08
2022-10-17T09:05:34.505Z,18.01
2022-10-17T09:08:24.669Z,17.86
2022-10-17T09:11:22.704Z,17.81
2022-10-17T09:14:00.876Z,17.73
2022-10-17T09:16:48.122Z,17.72
2022-10-17T09:19:26.971Z,17.73
2022-10-17T09:22:06.450Z,17.72
2022-10-17T09:24:43.455Z,17.80
2022-10-17T09:28:10.605Z,17.95
2022-10-17T09:30:46.269Z,18.05
2022-10-17T09:33:34.642Z,17.93
2022-10-17T09:36:06.153Z,17.99
2022-10-17T09:38:43.287Z,18.03
2022-10-17T09:44:20.321Z,18.19
2022-10-17T09:47:17.218Z,18.06
2022-10-17T09:49:46.952Z,18.11
2022-10-17T09:52:18.169Z,18.23
2022-10-17T09:55:02.075Z,18.31
2022-10-17T09:57:29.787Z,18.38
2022-10-17T10:00:05.947Z,18.56
2022-10-17T10:02:40.909Z,18.62
2022-10-17T10:05:21.871Z,18.87
2022-10-17T10:08:03.550Z,19.02
2022-10-17T10:10:32.531Z,18.95
2022-10-17T10:13:22.537Z,18.98
2022-10-17T10:15:50.825Z,18.95
2022-10-17T10:18:35.933Z,18.87
2022-10-17T10:21:15.066Z,18.85
2022-10-17T10:24:06.806Z,18.92
2022-10-17T10:26:47.882Z,18.99
2022-10-17T10:29:29.014Z,19.06
2022-10-17T10:32:07.345Z,19.12
2022-10-17T10:34:36.135Z,19.09
2022-10-17T10:37:07.484Z,19.23
2022-10-17T10:39:41.714Z,19.29
2022-10-17T10:42:21.525Z,19.35
2022-10-17T10:44:50.578Z,19.56
2022-10-17T10:47:26.249Z,19.61
2022-10-17T10:50:22.648Z,19.61
2022-10-17T10:53:05.443Z,19.64
2022-10-17T10:55:40.401Z,19.72
2022-10-17T10:58:20.666Z,19.79
2022-10-17T11:00:49.711Z,19.90
2022-10-17T11:03:24.079Z,20.01
2022-10-17T11:06:06.412Z,20.13
2022-10-17T11:09:12.261Z,20.17
2022-10-17T11:11:45.721Z,20.33
2022-10-17T11:14:32.951Z,20.30
2022-10-17T11:17:27.719Z,20.31
2022-10-17T11:20:04.173Z,20.26
2022-10-17T11:22:35.322Z,20.25
2022-10-17T11:25:32.343Z,20.32
2022-10-17T11:28:04.631Z,20.45
2022-10-17T11:30:56.432Z,20.40
2022-10-17T11:33:40.750Z,20.39
2022-10-17T11:36:10.339Z,20.50
2022-10-17T11:38:43.461Z,20.43
2022-10-17T11:41:22.700Z,20.51
2022-10-17T11:44:18.693Z,20.55
2022-10-17T11:46:50.384Z,20.58
2022-10-17T11:49:40.571Z,20.63
2022-10-17T11:52:31.624Z,20.71
2022-10-17T11:55:21.991Z,20.73
2022-10-17T11:58:11.112Z,20.71
2022-10-17T12:01:16.195Z,20.76
2022-10-17T12:04:12.959Z,20.92
2022-10-17T12:07:12.266Z,20.98
2022-10-17T12:09:46.174Z,21.05
2022-10-17T12:12:31.744Z,21.14
2022-10-17T12:15:20.699Z,21.21
2022-10-17T12:18:15.537Z,21.40
2022-10-17T12:20:43.646Z,21.55
2022-10-17T12:23:10.845Z,21.58
2022-10-17T12:25:50.745Z,21.58
2022-10-17T12:28:41.041Z,21.70
2022-10-17T12:31:29.693Z,21.85
2022-10-17T12:34:02.560Z,21.91
2022-10-17T12:36:31.347Z,21.88
2022-10-17T12:39:02.069Z,22.04
2022-10-17T12:41:53.868Z,22.18
2022-10-17T12:44:21.693Z,22.15
2022-10-17T12:46:49.306Z,22.14
2022-10-17T12:49:51.115Z,22.04
2022-10-17T12:52:32.796Z,21.99
2022-10-17T12:55:18.430Z,21.90
2022-10-17T12:57:55.560Z,21.91
2022-10-17T13:00:22.892Z,21.94
2022-10-17T13:02:54.791Z,22.00
2022-10-17T13:05:35.510Z,22.00
2022-10-17T13:08:06.260Z,21.90
2022-10-17T13:10:41.872Z,21.96
2022-10-17T13:13:19.087Z,22.00
2022-10-17T13:15:48.886Z,21.88
2022-10-17T13:18:23.408Z,21.85
2022-10-17T13:20:58.619Z,21.74
2022-10-17T13:23:30.210Z,21.61
2022-10-17T13:26:14.816Z,21.71
2022-10-17T13:28:44.034Z,21.70
2022-10-17T13:31:32.590Z,21.58
2022-10-17T13:34:02.465Z,21.50
2022-10-17T13:36:31.430Z,21.49
2022-10-17T13:39:12.450Z,21.40
2022-10-17T13:41:42.290Z,21.35
2022-10-17T13:44:20.605Z,21.28
2022-10-17T13:46:48.164Z,21.20
2022-10-17T13:49:22.283Z,21.08
2022-10-17T13:51:53.579Z,20.94
2022-10-17T13:54:41.585Z,20.73
2022-10-17T13:57:30.624Z,20.73
2022-10-17T14:00:01.735Z,20.60
2022-10-17T14:02:31.341Z,20.58
2022-10-17T14:05:17.319Z,20.65
2022-10-17T14:10:39.147Z,20.36
2022-10-17T14:13:08.375Z,20.27
2022-10-17T14:15:37.503Z,20.17
2022-10-17T14:18:08.322Z,20.14
2022-10-17T14:23:46.525Z,19.94
2022-10-17T14:26:17.837Z,19.91
2022-10-17T14:28:49.146Z,19.80
2022-10-17T14:31:29.086Z,19.74
2022-10-17T14:33:56.941Z,19.65
2022-10-17T14:36:36.183Z,19.54
2022-10-17T14:39:05.274Z,19.49
2022-10-17T14:41:44.185Z,19.52
2022-10-17T14:44:23.048Z,19.42
2022-10-17T14:46:57.971Z,19.41
2022-10-17T14:49:40.105Z,19.34
2022-10-17T14:52:26.381Z,19.33
2022-10-17T14:54:53.985Z,19.27
2022-10-17T14:57:31.870Z,19.20
2022-10-17T14:59:59.274Z,19.21
2022-10-17T15:02:30.040Z,19.15
2022-10-17T15:04:58.107Z,19.04
2022-10-17T15:07:25.436Z,18.95
2022-10-17T15:09:53.899Z,18.94
2022-10-17T15:12:25.185Z,18.87
2022-10-17T15:14:54.024Z,18.86
2022-10-17T15:17:25.758Z,18.82
2022-10-17T15:19:53.356Z,18.76
2022-10-17T15:22:20.735Z,18.65
2022-10-17T15:24:48.011Z,18.58
2022-10-17T15:27:21.524Z,18.59
2022-10-17T15:29:50.042Z,18.48
2022-10-17T15:32:17.427Z,18.44
2022-10-17T15:34:44.786Z,18.39
2022-10-17T15:37:20.981Z,18.29
2022-10-17T15:39:53.456Z,18.27
2022-10-17T15:42:30.358Z,18.23
2022-10-17T15:44:58.813Z,18.14
2022-10-17T15:47:33.860Z,18.11
2022-10-17T15:50:01.909Z,17.98
2022-10-17T15:52:29.224Z,17.90
2022-10-17T15:55:00.863Z,17.88
2022-10-17T15:57:36.705Z,17.88
2022-10-17T16:00:09.914Z,17.80
2022-10-17T16:02:39.234Z,17.71
2022-10-17T16:05:29.319Z,17.67
2022-10-17T16:07:57.608Z,17.55
2022-10-17T16:10:26.082Z,17.61
2022-10-17T16:12:53.415Z,17.55
2022-10-17T16:15:23.408Z,17.52
2022-10-17T16:17:56.472Z,17.42
2022-10-17T16:20:40.317Z,17.34
2022-10-17T16:23:08.532Z,17.32
2022-10-17T16:25:36.026Z,17.27
2022-10-17T16:28:04.242Z,17.22
2022-10-17T16:30:32.504Z,17.16
2022-10-17T16:33:00.233Z,17.11
2022-10-17T16:35:31.909Z,17.11
2022-10-17T16:38:02.520Z,17.10
2022-10-17T16:40:29.832Z,17.01
2022-10-17T16:42:57.071Z,16.95
2022-10-17T16:45:26.539Z,16.91
2022-10-17T16:47:53.931Z,16.85
2022-10-17T16:50:21.490Z,16.86
2022-10-17T16:52:48.915Z,16.78
2022-10-17T16:55:39.868Z,16.69
2022-10-17T16:58:08.284Z,16.69
2022-10-17T17:00:36.092Z,16.75
2022-10-17T17:03:03.960Z,16.68
2022-10-17T17:05:31.199Z,16.62
2022-10-17T17:07:59.443Z,16.60
2022-10-17T17:10:26.791Z,16.63
2022-10-17T17:12:54.122Z,16.56
2022-10-17T17:15:21.375Z,16.57
2022-10-17T17:17:51.530Z,16.57
2022-10-17T17:20:22.364Z,16.59
2022-10-17T17:22:50.847Z,16.53
2022-10-17T17:25:18.499Z,16.52
2022-10-17T17:27:45.754Z,16.56
2022-10-17T17:30:13.220Z,16.51
2022-10-17T17:32:41.057Z,16.40
2022-10-17T17:35:09.556Z,16.47
2022-10-17T17:37:37.225Z,16.42
2022-10-17T17:40:06.160Z,16.53
2022-10-17T17:42:33.502Z,16.42
2022-10-17T17:45:00.742Z,16.35
2022-10-17T17:47:31.369Z,16.37
2022-10-17T17:49:58.979Z,16.38
2022-10-17T17:52:26.400Z,16.38
2022-10-17T17:54:53.577Z,16.33
2022-10-17T17:57:20.772Z,16.34
2022-10-17T17:59:52.339Z,16.30
2022-10-17T18:02:19.749Z,16.28
2022-10-17T18:04:47.010Z,16.18
2022-10-17T18:07:17.357Z,16.14
2022-10-17T18:09:44.597Z,16.10
2022-10-17T18:12:11.805Z,16.02
2022-10-17T18:14:39.105Z,16.01
2022-10-17T18:17:06.355Z,15.94
2022-10-17T18:19:33.832Z,15.97
2022-10-17T18:22:01.094Z,16.01
2022-10-17T18:24:28.356Z,15.86
2022-10-17T18:26:59.778Z,15.86
2022-10-17T18:29:27.747Z,15.89
2022-10-17T18:31:55.696Z,15.81
2022-10-17T18:34:23.282Z,15.90
2022-10-17T18:37:04.145Z,15.86
2022-10-17T18:39:31.357Z,15.82
2022-10-17T18:42:06.659Z,15.80
2022-10-17T18:44:34.416Z,15.76
2022-10-17T18:47:04.121Z,15.75
2022-10-17T18:49:31.687Z,15.70
2022-10-17T18:51:59.853Z,15.70
2022-10-17T18:54:27.063Z,15.65
2022-10-17T18:56:55.466Z,15.63
2022-10-17T18:59:23.179Z,15.70
2022-10-17T19:01:51.769Z,15.70
2022-10-17T19:04:19.583Z,15.65
2022-10-17T19:06:47.436Z,15.63
2022-10-17T19:09:16.304Z,15.63
2022-10-17T19:11:44.239Z,15.66
2022-10-17T19:14:13.710Z,15.63
2022-10-17T19:16:47.414Z,15.64
2022-10-17T19:19:20.772Z,15.61
2022-10-17T19:21:49.003Z,15.65
2022-10-17T19:24:19.669Z,15.62
2022-10-17T19:26:50.182Z,15.52
2022-10-17T19:29:18.480Z,15.45
2022-10-17T19:31:46.771Z,15.48
2022-10-17T19:34:15.363Z,15.37
2022-10-17T19:36:43.069Z,15.27
2022-10-17T19:39:13.445Z,15.34
2022-10-17T19:41:42.594Z,15.29
2022-10-17T19:44:10.442Z,15.28
2022-10-17T19:46:38.109Z,15.31
2022-10-17T19:49:06.241Z,15.26
2022-10-17T19:51:34.129Z,15.25
2022-10-17T19:54:01.413Z,15.45
2022-10-17T19:56:36.851Z,15.43
2022-10-17T19:59:06.843Z,15.47
2022-10-17T20:01:36.197Z,15.45
2022-10-17T20:04:04.399Z,15.45
2022-10-17T20:06:33.607Z,15.42
2022-10-17T20:09:01.083Z,15.39
2022-10-17T20:11:29.544Z,15.52
2022-10-17T20:13:57.532Z,15.50
2022-10-17T20:16:27.355Z,15.48
2022-10-17T20:18:56.961Z,15.54
2022-10-17T20:21:32.430Z,15.49
2022-10-17T20:24:00.527Z,15.55
2022-10-17T20:26:44.626Z,15.62
2022-10-17T20:29:20.559Z,15.70
2022-10-17T20:31:48.354Z,15.59
2022-10-17T20:34:16.746Z,15.54
2022-10-17T20:36:44.128Z,15.61
2022-10-17T20:39:13.575Z,15.50
2022-10-17T20:41:41.683Z,15.53
2022-10-17T20:44:09.233Z,15.64
2022-10-17T20:46:41.715Z,15.53
2022-10-17T20:49:18.079Z,15.44
2022-10-17T20:51:45.706Z,15.44
2022-10-17T20:54:13.114Z,15.36
2022-10-17T20:56:40.351Z,15.28
2022-10-17T20:59:12.337Z,15.31
2022-10-17T21:01:39.865Z,15.31
2022-10-17T21:04:33.374Z,15.42
2022-10-17T21:06:54.411Z,15.37
2022-10-17T21:09:22.189Z,15.26
2022-10-17T21:11:55.006Z,15.15
2022-10-17T21:14:24.116Z,15.14
2022-10-17T21:16:52.350Z,15.17
2022-10-17T21:19:21.672Z,15.10
2022-10-17T21:21:49.642Z,15.36
2022-10-17T21:24:18.115Z,15.39
2022-10-17T21:26:47.104Z,15.31
2022-10-17T21:29:14.451Z,15.27
2022-10-17T21:31:43.986Z,15.20
2022-10-17T21:34:18.392Z,15.19
2022-10-17T21:36:45.640Z,15.06
2022-10-17T21:39:14.036Z,15.02
2022-10-17T21:41:42.705Z,14.92
2022-10-17T21:44:17.263Z,14.82
2022-10-17T21:46:45.151Z,14.78
2022-10-17T21:49:13.631Z,14.77
2022-10-17T21:51:41.658Z,14.78
2022-10-17T21:54:09.025Z,14.68
2022-10-17T21:56:36.700Z,14.73
2022-10-17T21:59:04.844Z,14.76
2022-10-17T22:01:36.140Z,14.86
2022-10-17T22:04:06.885Z,14.96
2022-10-17T22:06:40.821Z,15.05
2022-10-17T22:09:18.083Z,15.10
2022-10-17T22:12:17.943Z,15.10
2022-10-17T22:14:45.299Z,15.13
2022-10-17T22:17:12.577Z,15.15
2022-10-17T22:19:39.807Z,15.07
2022-10-17T22:22:07.094Z,15.14
2022-10-17T22:24:34.709Z,15.15
2022-10-17T22:27:02.223Z,15.15
2022-10-17T22:29:29.731Z,15.24
2022-10-17T22:31:57.036Z,15.14
2022-10-17T22:34:24.278Z,15.10
2022-10-17T22:36:51.629Z,15.01
2022-10-17T22:39:18.986Z,14.98
2022-10-17T22:41:46.238Z,14.88
2022-10-17T22:44:13.530Z,14.94
2022-10-17T22:46:40.883Z,14.93
2022-10-17T22:49:08.539Z,14.83
2022-10-17T22:51:35.879Z,14.73
2022-10-17T22:54:03.291Z,14.60
2022-10-17T22:56:30.695Z,14.70
2022-10-17T22:58:57.984Z,14.71
2022-10-17T23:01:26.350Z,14.61
2022-10-17T23:03:53.700Z,14.62
2022-10-17T23:06:21.185Z,14.59
2022-10-17T23:08:48.903Z,14.66
2022-10-17T23:11:16.262Z,14.44
2022-10-17T23:13:43.607Z,14.36
2022-10-17T23:16:10.871Z,14.31
2022-10-17T23:18:38.674Z,14.26
2022-10-17T23:21:06.165Z,14.17
2022-10-17T23:23:33.725Z,14.08
2022-10-17T23:26:09.807Z,14.06
2022-10-17T23:28:37.605Z,13.96
2022-10-17T23:31:20.174Z,14.05
2022-10-17T23:33:49.315Z,14.05
2022-10-17T23:36:20.064Z,14.03
2022-10-17T23:38:48.182Z,13.92
2022-10-17T23:41:16.493Z,13.99
2022-10-17T23:43:44.414Z,13.88
2022-10-17T23:46:11.547Z,13.82
2022-10-17T23:48:39.753Z,13.90
2022-10-17T23:51:08.526Z,13.80
2022-10-17T23:53:39.570Z,13.88
2022-10-17T23:56:08.019Z,13.96
2022-10-17T23:58:35.914Z,13.91
